Time;durP1;ratioP1;P1;durP2;ratioP2;P2;SDS_P1;SDS_P2;PMS_P1;PMS_P2;Temp;Humidity;BMP_temperature;BMP_pressure;BME280_temperature;BME280_humidity;BME280_pressure;Samples;Min_cycle;Max_cycle;Signal;HPM_P1;HPM_P2
2021/07/15 00:00:24;;;;;;;3.40;0.33;;;;;;;12.42;100.00;93412.88;5074963;28;20250;-76
2021/07/15 00:02:50;;;;;;;2.47;0.40;;;;;;;12.37;100.00;93410.94;5074824;28;20612;-77
2021/07/15 00:05:19;;;;;;;0.30;0.20;;;;;;;12.40;100.00;93405.25;5075122;28;20346;-77
2021/07/15 00:07:46;;;;;;;0.33;0.30;;;;;;;12.39;100.00;93408.13;5074330;28;20202;-80
2021/07/15 00:10:20;;;;;;;0.70;0.20;;;;;;;12.33;100.00;93403.75;5074885;28;20244;-78
2021/07/15 00:12:49;;;;;;;1.20;0.40;;;;;;;12.35;100.00;93401.69;5074804;28;20244;-78
2021/07/15 00:15:19;;;;;;;1.60;0.30;;;;;;;12.31;100.00;93395.31;5074631;28;20256;-78
2021/07/15 00:17:47;;;;;;;1.30;0.20;;;;;;;12.35;100.00;93396.47;5074597;28;20527;-80
2021/07/15 00:20:16;;;;;;;0.20;0.20;;;;;;;12.36;100.00;93391.00;5074779;28;20215;-79
2021/07/15 00:22:44;;;;;;;0.63;0.20;;;;;;;12.32;100.00;93386.44;5074531;28;20245;-78
2021/07/15 00:25:14;;;;;;;3.45;0.30;;;;;;;12.37;100.00;93384.78;5060090;28;20199;-79
2021/07/15 00:27:42;;;;;;;1.27;0.40;;;;;;;12.29;100.00;93387.69;5054456;28;20204;-78
2021/07/15 00:30:10;;;;;;;0.50;0.30;;;;;;;12.25;100.00;93380.50;5073728;28;20203;-78
2021/07/15 00:32:36;;;;;;;1.53;0.30;;;;;;;12.24;100.00;93373.66;5073669;28;20654;-79
2021/07/15 00:35:03;;;;;;;1.30;0.20;;;;;;;12.24;100.00;93378.88;5064922;28;20196;-79
2021/07/15 00:37:30;;;;;;;1.17;0.30;;;;;;;12.28;100.00;93377.44;5054531;28;20204;-78
2021/07/15 00:39:57;;;;;;;0.20;0.20;;;;;;;12.27;100.00;93378.44;5054182;28;20253;-79
2021/07/15 00:42:24;;;;;;;2.30;0.30;;;;;;;12.31;100.00;93390.09;5054000;28;20207;-79
2021/07/15 00:44:51;;;;;;;1.23;0.30;;;;;;;12.31;100.00;93380.41;5054283;28;20337;-80
2021/07/15 00:47:17;;;;;;;0.70;0.30;;;;;;;12.33;100.00;93382.81;5054213;28;20207;-78
2021/07/15 00:49:43;;;;;;;1.23;0.20;;;;;;;12.29;100.00;93377.22;5054068;28;20207;-77
2021/07/15 00:52:12;;;;;;;2.20;0.20;;;;;;;12.31;100.00;93375.16;5054005;28;20199;-77
2021/07/15 00:54:40;;;;;;;0.60;0.30;;;;;;;12.29;100.00;93376.41;5053871;28;20223;-78
2021/07/15 00:57:08;;;;;;;0.30;0.30;;;;;;;12.31;100.00;93371.75;5053759;28;20195;-77
2021/07/15 00:59:35;;;;;;;4.43;0.20;;;;;;;12.32;100.00;93376.78;5053951;28;20253;-77
2021/07/15 01:02:02;;;;;;;0.83;0.20;;;;;;;12.32;100.00;93375.97;5053856;28;20277;-78
2021/07/15 01:04:28;;;;;;;1.93;0.27;;;;;;;12.34;100.00;93373.91;5053864;28;20257;-77
2021/07/15 01:06:55;;;;;;;0.20;0.20;;;;;;;12.31;100.00;93382.22;5053750;28;20204;-77
2021/07/15 01:09:22;;;;;;;0.30;0.30;;;;;;;12.27;100.00;93375.81;5053578;28;20207;-76
2021/07/15 01:11:56;;;;;;;0.43;0.17;;;;;;;12.21;100.00;93375.69;5053890;28;20205;-77
2021/07/15 01:14:28;;;;;;;0.93;0.20;;;;;;;12.19;100.00;93371.69;5053514;28;20268;-77
2021/07/15 01:16:59;;;;;;;1.50;0.30;;;;;;;12.30;100.00;93383.25;5053734;28;20199;-77
2021/07/15 01:20:04;;;;;;;0.20;0.20;;;;;;;12.37;100.00;93381.34;5053556;28;20261;-76
2021/07/15 01:22:35;;;;;;;0.77;0.30;;;;;;;12.34;100.00;93373.91;5053644;28;20203;-77
2021/07/15 01:25:34;;;;;;;2.87;0.30;;;;;;;12.27;100.00;93378.44;5053417;28;20203;-77
2021/07/15 01:28:06;;;;;;;0.20;0.20;;;;;;;12.28;100.00;93373.00;5055080;28;20196;-76
2021/07/15 01:30:37;;;;;;;0.23;0.20;;;;;;;12.26;100.00;93372.41;5073675;28;20289;-77
2021/07/15 01:33:08;;;;;;;1.90;0.30;;;;;;;12.31;100.00;93375.16;5073316;28;20199;-78
2021/07/15 01:35:42;;;;;;;0.87;0.40;;;;;;;12.32;100.00;93365.50;5073433;28;20608;-78
2021/07/15 01:38:11;;;;;;;3.50;0.40;;;;;;;12.30;100.00;93367.53;5072277;28;20437;-77
2021/07/15 01:40:46;;;;;;;0.40;0.20;;;;;;;12.28;100.00;93365.13;5073010;28;20248;-76
2021/07/15 01:43:17;;;;;;;1.10;0.30;;;;;;;12.31;100.00;93366.53;5072548;28;20202;-76
2021/07/15 01:45:45;;;;;;;2.90;0.30;;;;;;;12.29;100.00;93368.53;5073378;28;20217;-77
2021/07/15 01:48:13;;;;;;;1.07;0.30;;;;;;;12.30;100.00;93363.09;5073176;28;20290;-76
2021/07/15 01:50:40;;;;;;;2.63;0.30;;;;;;;12.33;100.00;93364.47;5073230;28;20616;-76
2021/07/15 01:53:08;;;;;;;0.63;0.47;;;;;;;12.37;100.00;93363.81;5073000;28;20719;-77
2021/07/15 01:55:35;;;;;;;0.20;0.20;;;;;;;12.37;100.00;93368.25;5073054;28;20264;-78
2021/07/15 01:58:04;;;;;;;0.20;0.17;;;;;;;12.37;100.00;93369.06;5073020;28;20716;-78
2021/07/15 02:00:31;;;;;;;0.60;0.30;;;;;;;12.38;100.00;93369.84;5072578;28;20300;-76
2021/07/15 02:03:00;;;;;;;0.60;0.20;;;;;;;12.37;100.00;93374.28;5072903;28;20252;-78
2021/07/15 02:05:28;;;;;;;0.53;0.20;;;;;;;12.31;100.00;93366.53;5072898;28;20198;-79
2021/07/15 02:07:56;;;;;;;0.37;0.23;;;;;;;12.29;100.00;93365.94;5072767;28;20210;-79
2021/07/15 02:10:25;;;;;;;0.83;0.20;;;;;;;12.29;100.00;93356.28;5073039;28;20256;-78
2021/07/15 02:12:53;;;;;;;0.20;0.20;;;;;;;12.29;100.00;93356.28;5072787;28;20650;-78
2021/07/15 02:15:19;;;;;;;0.20;0.20;;;;;;;12.30;100.00;93347.38;5072853;28;20292;-78
2021/07/15 02:17:48;;;;;;;0.40;0.30;;;;;;;12.40;100.00;93336.38;5072902;28;20203;-77
2021/07/15 02:20:18;;;;;;;0.97;0.30;;;;;;;12.40;100.00;93341.63;5072955;28;20213;-77
2021/07/15 02:22:45;;;;;;;0.53;0.17;;;;;;;12.41;100.00;93327.53;5073231;28;20335;-77
2021/07/15 02:25:13;;;;;;;0.20;0.20;;;;;;;12.39;100.00;93332.19;5072313;28;20625;-78
2021/07/15 02:27:43;;;;;;;0.20;0.20;;;;;;;12.38;100.00;93333.19;5072972;28;20210;-77
2021/07/15 02:30:12;;;;;;;2.65;0.20;;;;;;;12.39;100.00;93337.44;5071640;28;20472;-79
2021/07/15 02:32:39;;;;;;;0.20;0.20;;;;;;;12.39;100.00;93330.38;5072705;28;20281;-76
2021/07/15 02:35:10;;;;;;;0.30;0.30;;;;;;;12.35;100.00;93328.41;5072701;28;20222;-77
2021/07/15 02:37:40;;;;;;;0.80;0.30;;;;;;;12.36;100.00;93330.00;5072764;28;20260;-78
2021/07/15 02:40:08;;;;;;;0.20;0.20;;;;;;;12.33;100.00;93339.09;5072651;28;20199;-76
2021/07/15 02:42:35;;;;;;;0.77;0.20;;;;;;;12.38;100.00;93338.44;5072778;28;20272;-76
2021/07/15 02:45:01;;;;;;;0.10;0.10;;;;;;;12.42;100.00;93339.56;5072650;28;20236;-77
2021/07/15 02:47:28;;;;;;;0.60;0.20;;;;;;;12.40;100.00;93336.38;5072275;28;20204;-77
2021/07/15 02:49:55;;;;;;;0.50;0.20;;;;;;;12.35;100.00;93344.13;5072616;28;20272;-77
2021/07/15 02:52:22;;;;;;;0.30;0.30;;;;;;;12.37;100.00;93348.13;5072603;28;20260;-76
2021/07/15 02:54:49;;;;;;;1.10;0.20;;;;;;;12.39;100.00;93340.84;5074267;28;20226;-77
2021/07/15 02:57:24;;;;;;;0.83;0.20;;;;;;;12.37;100.00;93342.06;5076093;28;20206;-76
2021/07/15 02:59:56;;;;;;;0.20;0.20;;;;;;;12.39;100.00;93343.44;5075979;28;20294;-76
2021/07/15 03:02:27;;;;;;;0.30;0.30;;;;;;;12.47;100.00;93333.69;5076254;28;20603;-77
2021/07/15 03:05:00;;;;;;;0.43;0.20;;;;;;;12.45;100.00;93333.91;5075975;28;20203;-78
2021/07/15 03:07:29;;;;;;;0.50;0.30;;;;;;;12.47;100.00;93331.06;5075974;28;20213;-75
2021/07/15 03:09:58;;;;;;;0.20;0.20;;;;;;;12.44;100.00;93324.47;5075862;28;20199;-76
2021/07/15 03:12:26;;;;;;;2.30;0.27;;;;;;;12.47;100.00;93325.81;5075630;28;20202;-75
2021/07/15 03:14:55;;;;;;;0.30;0.30;;;;;;;12.42;100.00;93323.88;5075930;28;20308;-76
2021/07/15 03:17:27;;;;;;;0.23;0.23;;;;;;;12.45;100.00;93333.09;5075935;28;20251;-75
2021/07/15 03:19:57;;;;;;;0.27;0.27;;;;;;;12.43;100.00;93338.56;5075737;28;20207;-75
2021/07/15 03:22:25;;;;;;;0.23;0.23;;;;;;;12.43;100.00;93337.78;5075706;28;20203;-77
2021/07/15 03:24:59;;;;;;;0.20;0.20;;;;;;;12.46;100.00;93340.75;5075388;28;20199;-77
2021/07/15 03:27:28;;;;;;;0.23;0.23;;;;;;;12.43;100.00;93343.00;5075465;28;20313;-75
2021/07/15 03:29:57;;;;;;;1.27;0.50;;;;;;;12.45;100.00;93347.00;5075437;28;20210;-75
2021/07/15 03:32:26;;;;;;;0.17;0.10;;;;;;;12.43;100.00;93346.41;5075553;28;20213;-78
2021/07/15 03:34:53;;;;;;;0.40;0.30;;;;;;;12.44;100.00;93352.44;5075026;28;20249;-76
2021/07/15 03:37:20;;;;;;;0.73;0.30;;;;;;;12.42;100.00;93344.81;5075245;28;20203;-76
2021/07/15 03:39:48;;;;;;;0.20;0.20;;;;;;;12.42;100.00;93352.66;5075722;28;20289;-76
2021/07/15 03:42:18;;;;;;;0.20;0.20;;;;;;;12.48;100.00;93345.75;5075299;28;20203;-77
2021/07/15 03:44:45;;;;;;;0.37;0.20;;;;;;;12.48;100.00;93348.38;5075312;28;20607;-76
2021/07/15 03:47:12;;;;;;;0.30;0.30;;;;;;;12.50;100.00;93343.72;5075140;28;20676;-75
2021/07/15 03:49:42;;;;;;;0.27;0.20;;;;;;;12.53;100.00;93348.50;5075015;28;20210;-76
2021/07/15 03:52:11;;;;;;;0.63;0.20;;;;;;;12.52;100.00;93345.09;5074533;28;20252;-78
2021/07/15 03:54:39;;;;;;;2.97;0.20;;;;;;;12.53;100.00;93338.03;5074878;28;20245;-78
2021/07/15 03:57:06;;;;;;;1.50;0.20;;;;;;;12.52;100.00;93339.88;5075144;28;20260;-78
2021/07/15 03:59:40;;;;;;;0.27;0.10;;;;;;;12.63;100.00;93345.34;5075021;28;20249;-76
2021/07/15 04:02:08;;;;;;;0.28;0.10;;;;;;;12.64;100.00;93341.69;5075036;28;20259;-77
2021/07/15 04:04:39;;;;;;;0.80;0.20;;;;;;;12.68;100.00;93350.72;5074710;28;20206;-77
2021/07/15 04:07:08;;;;;;;1.03;0.20;;;;;;;12.70;100.00;93353.91;5073829;28;20592;-76
2021/07/15 04:09:36;;;;;;;0.37;0.37;;;;;;;12.72;100.00;93360.53;5074693;28;20199;-77
2021/07/15 04:12:06;;;;;;;2.40;0.30;;;;;;;12.74;100.00;93373.41;5074475;28;20231;-77
2021/07/15 04:14:48;;;;;;;0.10;0.10;;;;;;;12.70;100.00;93370.41;5074627;28;20226;-77
2021/07/15 04:17:16;;;;;;;0.20;0.20;;;;;;;12.69;100.00;93370.63;5074599;28;20205;-78
2021/07/15 04:19:45;;;;;;;0.20;0.20;;;;;;;12.72;100.00;93370.19;5074654;28;20207;-77
2021/07/15 04:22:13;;;;;;;0.80;0.20;;;;;;;12.81;100.00;93378.53;5074352;28;20670;-77
2021/07/15 04:24:42;;;;;;;3.20;0.30;;;;;;;12.89;100.00;93373.78;5074514;28;20253;-78
2021/07/15 04:27:10;;;;;;;0.20;0.20;;;;;;;12.94;100.00;93376.53;5074082;28;20629;-77
2021/07/15 04:29:40;;;;;;;0.20;0.20;;;;;;;12.93;100.00;93377.53;5074207;28;20224;-77
2021/07/15 04:32:15;;;;;;;1.67;0.33;;;;;;;12.89;100.00;93371.16;5074216;28;20658;-76
2021/07/15 04:34:42;;;;;;;1.23;0.10;;;;;;;12.92;100.00;93375.13;5074255;28;20233;-76
2021/07/15 04:37:09;;;;;;;0.30;0.30;;;;;;;13.05;100.00;93374.16;5074170;28;20198;-76
2021/07/15 04:39:36;;;;;;;1.73;0.32;;;;;;;13.10;100.00;93361.94;5074116;28;20194;-77
2021/07/15 04:42:06;;;;;;;0.38;0.30;;;;;;;13.17;100.00;93359.22;5073985;28;20199;-77
2021/07/15 04:44:34;;;;;;;0.30;0.30;;;;;;;13.24;100.00;93357.31;5074187;28;20198;-78
2021/07/15 04:47:05;;;;;;;0.15;0.15;;;;;;;13.35;100.00;93357.56;5073928;28;20535;-77
2021/07/15 04:49:32;;;;;;;0.50;0.30;;;;;;;13.30;100.00;93353.75;5074113;28;20203;-77
2021/07/15 04:52:00;;;;;;;0.43;0.30;;;;;;;13.43;100.00;93352.00;5073885;28;20596;-77
2021/07/15 04:54:29;;;;;;;0.10;0.10;;;;;;;13.47;100.00;93355.72;5073561;28;20218;-77
2021/07/15 04:56:56;;;;;;;0.10;0.10;;;;;;;13.52;100.00;93358.47;5072991;28;20268;-76
2021/07/15 04:59:23;;;;;;;0.30;0.30;;;;;;;13.55;100.00;93358.00;5073697;28;20558;-77
2021/07/15 05:01:51;;;;;;;0.20;0.20;;;;;;;13.58;100.00;93341.81;5073789;28;20209;-77
2021/07/15 05:04:19;;;;;;;0.30;0.30;;;;;;;13.62;100.00;93348.22;5073724;28;20285;-77
2021/07/15 05:06:45;;;;;;;0.80;0.20;;;;;;;13.61;100.00;93351.06;5073574;28;20654;-76
2021/07/15 05:09:12;;;;;;;0.35;0.30;;;;;;;13.73;100.00;93357.09;5073596;28;20202;-77
2021/07/15 05:11:38;;;;;;;0.40;0.40;;;;;;;13.76;100.00;93368.97;5073759;28;20198;-79
2021/07/15 05:14:05;;;;;;;0.20;0.20;;;;;;;13.77;100.00;93360.06;5073600;28;20214;-77
2021/07/15 05:16:32;;;;;;;0.20;0.20;;;;;;;13.80;100.00;93349.88;5073294;28;20206;-76
2021/07/15 05:18:59;;;;;;;0.68;0.30;;;;;;;13.74;100.00;93360.50;5073355;28;20293;-76
2021/07/15 05:21:27;;;;;;;0.50;0.10;;;;;;;13.76;100.00;93351.38;5072368;28;20442;-78
2021/07/15 05:23:53;;;;;;;0.20;0.20;;;;;;;13.89;100.00;93358.22;5073161;28;20255;-76
2021/07/15 05:26:20;;;;;;;0.17;0.17;;;;;;;13.82;100.00;93352.28;5073121;28;20222;-78
2021/07/15 05:28:46;;;;;;;3.85;0.30;;;;;;;13.84;100.00;93352.88;5073259;28;20191;-78
2021/07/15 05:31:13;;;;;;;1.48;0.40;;;;;;;13.92;100.00;93351.69;5073328;28;20210;-78
2021/07/15 05:33:39;;;;;;;0.80;0.10;;;;;;;13.90;100.00;93349.31;5073258;28;20264;-77
2021/07/15 05:36:06;;;;;;;0.20;0.20;;;;;;;13.88;100.00;93349.53;5072996;28;20288;-76
2021/07/15 05:38:34;;;;;;;0.73;0.30;;;;;;;13.93;100.00;93340.19;5073110;28;20202;-77
2021/07/15 05:41:00;;;;;;;0.10;0.10;;;;;;;13.95;100.00;93332.88;5073238;28;20232;-76
2021/07/15 05:43:27;;;;;;;0.55;0.40;;;;;;;13.85;100.00;93336.09;5073111;28;20605;-77
2021/07/15 05:45:53;;;;;;;1.85;0.47;;;;;;;13.96;100.00;93337.88;5072987;28;20658;-77
2021/07/15 05:48:20;;;;;;;0.60;0.50;;;;;;;13.98;100.00;93335.81;5072993;28;20199;-77
2021/07/15 05:50:46;;;;;;;1.65;0.73;;;;;;;14.24;100.00;93338.97;5072895;28;20663;-77
2021/07/15 05:53:12;;;;;;;2.10;0.80;;;;;;;14.37;100.00;93338.69;5073336;28;20199;-76
2021/07/15 05:55:40;;;;;;;0.55;0.40;;;;;;;14.64;100.00;93343.41;5072729;28;20754;-76
2021/07/15 05:58:08;;;;;;;0.40;0.40;;;;;;;14.71;100.00;93349.28;5072520;28;20198;-76
2021/07/15 06:00:35;;;;;;;1.65;0.30;;;;;;;14.68;100.00;93354.22;5072907;28;20210;-77
2021/07/15 06:03:01;;;;;;;0.28;0.20;;;;;;;14.92;100.00;93358.34;5072847;28;20555;-76
2021/07/15 06:05:30;;;;;;;0.90;0.25;;;;;;;15.23;100.00;93356.19;5072460;28;20435;-78
2021/07/15 06:07:57;;;;;;;0.10;0.10;;;;;;;15.16;100.00;93361.59;5072681;28;20727;-77
2021/07/15 06:10:24;;;;;;;0.70;0.38;;;;;;;15.34;100.00;93360.56;5072851;28;20269;-77
2021/07/15 06:12:52;;;;;;;0.35;0.20;;;;;;;15.33;100.00;93372.13;5072927;28;20202;-77
2021/07/15 06:15:18;;;;;;;0.20;0.20;;;;;;;15.11;100.00;93366.00;5072706;28;20226;-76
2021/07/15 06:17:45;;;;;;;0.10;0.10;;;;;;;15.32;100.00;93380.25;5072555;28;20660;-76
2021/07/15 06:20:13;;;;;;;0.20;0.20;;;;;;;15.42;100.00;93383.06;5072885;28;20217;-76
2021/07/15 06:22:40;;;;;;;0.20;0.20;;;;;;;15.42;100.00;93383.06;5072796;28;20237;-76
2021/07/15 06:25:09;;;;;;;0.20;0.20;;;;;;;15.53;100.00;93386.63;5072525;28;20198;-77
2021/07/15 06:27:36;;;;;;;0.10;0.10;;;;;;;15.35;100.00;93388.47;5072731;28;20266;-77
2021/07/15 06:30:06;;;;;;;0.45;0.20;;;;;;;15.11;100.00;93395.69;5074929;28;20762;-77
2021/07/15 06:32:32;;;;;;;1.67;0.15;;;;;;;14.86;100.00;93400.53;5076338;28;20613;-77
2021/07/15 06:34:58;;;;;;;0.68;0.20;;;;;;;14.77;100.00;93400.09;5076827;28;20222;-76
2021/07/15 06:37:31;;;;;;;0.20;0.20;;;;;;;14.72;100.00;93405.25;5076459;28;20203;-76
2021/07/15 06:39:59;;;;;;;0.22;0.22;;;;;;;14.64;100.00;93403.00;5076588;28;20211;-76
2021/07/15 06:42:26;;;;;;;1.65;0.30;;;;;;;14.61;100.00;93412.16;5076397;28;20249;-77
2021/07/15 06:44:52;;;;;;;0.50;0.47;;;;;;;14.69;100.00;93411.81;5076318;28;20561;-77
2021/07/15 06:47:20;;;;;;;0.20;0.20;;;;;;;14.75;100.00;93404.81;5076197;28;20584;-76
2021/07/15 06:49:46;;;;;;;1.27;0.10;;;;;;;14.76;100.00;93415.06;5075527;28;20781;-76
2021/07/15 06:52:13;;;;;;;2.20;0.20;;;;;;;14.68;100.00;93418.06;5076458;28;20430;-76
2021/07/15 06:54:39;;;;;;;0.10;0.10;;;;;;;14.58;100.00;93417.88;5076163;28;20203;-76
2021/07/15 06:57:06;;;;;;;5.50;0.20;;;;;;;14.58;100.00;93412.59;5076074;28;20260;-77
2021/07/15 06:59:32;;;;;;;0.20;0.20;;;;;;;14.48;100.00;93409.78;5076038;28;20677;-76
2021/07/15 07:01:59;;;;;;;0.25;0.25;;;;;;;14.35;100.00;93414.25;5076162;28;20260;-77
2021/07/15 07:04:27;;;;;;;1.45;0.63;;;;;;;14.38;100.00;93407.75;5076142;28;20199;-76
2021/07/15 07:06:53;;;;;;;2.20;0.30;;;;;;;14.38;100.00;93420.88;5076052;28;20287;-76
2021/07/15 07:09:19;;;;;;;0.38;0.30;;;;;;;14.24;100.00;93418.53;5075969;28;20558;-77
2021/07/15 07:11:46;;;;;;;0.68;0.30;;;;;;;14.19;100.00;93436.00;5075714;28;20661;-79
2021/07/15 07:14:12;;;;;;;0.85;0.50;;;;;;;14.05;100.00;93433.63;5075737;28;20202;-79
2021/07/15 07:16:39;;;;;;;0.75;0.22;;;;;;;14.03;100.00;93437.50;5075973;28;20227;-76
2021/07/15 07:19:05;;;;;;;0.25;0.25;;;;;;;14.10;100.00;93432.13;5075770;28;20207;-78
2021/07/15 07:21:33;;;;;;;0.88;0.30;;;;;;;14.35;100.00;93431.84;5075783;28;20260;-78
2021/07/15 07:24:00;;;;;;;0.95;0.65;;;;;;;14.79;100.00;93437.47;5075819;28;20203;-78
2021/07/15 07:26:27;;;;;;;1.95;0.50;;;;;;;14.89;100.00;93429.78;5075413;28;20705;-78
2021/07/15 07:28:53;;;;;;;0.22;0.20;;;;;;;14.92;100.00;93433.75;5075599;28;20194;-78
2021/07/15 07:31:19;;;;;;;3.13;0.50;;;;;;;14.96;100.00;93437.50;5075372;28;20688;-76
2021/07/15 07:33:46;;;;;;;0.30;0.30;;;;;;;15.24;100.00;93431.44;5075362;28;20207;-78
2021/07/15 07:36:13;;;;;;;0.85;0.22;;;;;;;15.61;100.00;93424.91;5075303;28;20769;-78
2021/07/15 07:38:40;;;;;;;1.33;0.30;;;;;;;16.00;100.00;93427.59;5075469;28;20252;-81
2021/07/15 07:41:07;;;;;;;0.52;0.30;;;;;;;16.71;100.00;93429.53;5073931;28;20194;-80
2021/07/15 07:43:33;;;;;;;0.30;0.30;;;;;;;17.08;100.00;93420.97;5075463;28;20198;-79
2021/07/15 07:46:01;;;;;;;0.45;0.30;;;;;;;17.35;100.00;93421.75;5075303;28;20199;-78
2021/07/15 07:48:27;;;;;;;0.52;0.30;;;;;;;17.36;100.00;93412.78;5075161;28;20206;-77
2021/07/15 07:50:57;;;;;;;0.40;0.32;;;;;;;17.45;100.00;93421.03;5074699;28;20221;-77
2021/07/15 07:53:24;;;;;;;0.65;0.40;;;;;;;17.65;100.00;93420.41;5075083;28;20661;-77
2021/07/15 07:55:52;;;;;;;0.32;0.30;;;;;;;17.41;100.00;93419.94;5074987;28;20227;-79
2021/07/15 07:58:18;;;;;;;0.20;0.20;;;;;;;17.70;100.00;93417.81;5075184;28;20199;-78
2021/07/15 08:00:45;;;;;;;0.28;0.28;;;;;;;18.23;100.00;93414.44;5074881;28;20587;-79
2021/07/15 08:03:13;;;;;;;0.40;0.40;;;;;;;18.63;100.00;93413.81;5074998;28;20252;-78
2021/07/15 08:05:42;;;;;;;0.30;0.30;;;;;;;19.21;100.00;93419.00;5074804;28;20294;-77
2021/07/15 08:08:09;;;;;;;1.83;0.57;;;;;;;19.17;100.00;93414.53;5074775;28;20360;-78
2021/07/15 08:10:36;;;;;;;0.95;0.57;;;;;;;18.44;100.00;93408.19;5074876;28;20294;-78
2021/07/15 08:13:04;;;;;;;1.50;0.70;;;;;;;18.67;100.00;93411.47;5074656;28;20195;-80
2021/07/15 08:15:30;;;;;;;0.88;0.55;;;;;;;19.00;100.00;93418.19;5074719;28;20222;-79
2021/07/15 08:17:57;;;;;;;0.88;0.60;;;;;;;18.78;100.00;93420.22;5074672;28;20207;-79
2021/07/15 08:20:23;;;;;;;0.63;0.50;;;;;;;18.03;100.00;93431.75;5074638;28;20202;-78
2021/07/15 08:22:50;;;;;;;1.58;0.45;;;;;;;16.95;100.00;93432.72;5074496;28;20207;-78
2021/07/15 08:25:19;;;;;;;0.57;0.50;;;;;;;16.33;100.00;93431.19;5074473;28;20206;-78
2021/07/15 08:27:46;;;;;;;1.33;0.40;;;;;;;16.13;100.00;93437.78;5074650;28;20248;-77
2021/07/15 08:30:16;;;;;;;0.40;0.40;;;;;;;16.14;100.00;93447.28;5054571;28;20199;-81
2021/07/15 08:32:43;;;;;;;0.55;0.45;;;;;;;15.67;100.00;93445.78;5054467;28;20203;-77
2021/07/15 08:35:10;;;;;;;0.50;0.50;;;;;;;15.82;100.00;93442.63;5054230;28;20203;-79
2021/07/15 08:37:37;;;;;;;0.90;0.50;;;;;;;16.15;100.00;93450.72;5054088;28;20211;-79
2021/07/15 08:40:05;;;;;;;4.43;0.40;;;;;;;16.12;100.00;93453.81;5053927;28;20215;-80
2021/07/15 08:42:31;;;;;;;1.25;0.40;;;;;;;16.22;100.00;93452.13;5054518;28;20290;-79
2021/07/15 08:45:01;;;;;;;0.43;0.30;;;;;;;16.34;100.00;93453.88;5054307;28;20210;-79
2021/07/15 08:47:29;;;;;;;0.40;0.40;;;;;;;16.77;100.00;93458.34;5054172;28;20666;-82
2021/07/15 08:49:56;;;;;;;0.22;0.22;;;;;;;17.16;100.00;93455.59;5053774;28;20677;-81
2021/07/15 08:52:23;;;;;;;0.63;0.32;;;;;;;16.98;100.00;93454.09;5053873;28;20206;-79
2021/07/15 08:55:00;;;;;;;0.30;0.30;;;;;;;17.10;100.00;93459.25;5054067;28;20531;-81
2021/07/15 08:57:25;;;;;;;0.50;0.43;;;;;;;16.60;100.00;93457.59;5053871;28;20253;-80
2021/07/15 08:59:52;;;;;;;0.63;0.45;;;;;;;16.27;100.00;93468.00;5053681;28;20586;-79
2021/07/15 09:02:20;;;;;;;0.60;0.50;;;;;;;16.17;100.00;93465.25;5053883;28;20200;-78
2021/07/15 09:04:48;;;;;;;0.82;0.50;;;;;;;16.22;100.00;93467.94;5053522;28;20204;-78
2021/07/15 09:07:16;;;;;;;0.68;0.40;;;;;;;16.50;100.00;93466.19;5053676;28;20666;-79
2021/07/15 09:09:45;;;;;;;0.52;0.40;;;;;;;16.87;100.00;93473.50;5053803;28;20252;-79
2021/07/15 09:12:11;;;;;;;0.50;0.50;;;;;;;16.93;100.00;93483.06;5053068;28;20658;-76
2021/07/15 09:14:46;;;;;;;0.60;0.57;;;;;;;17.12;100.00;93485.38;5051856;28;20215;-78
2021/07/15 09:17:13;;;;;;;1.45;0.30;;;;;;;17.46;100.00;93483.34;5053506;28;20227;-79
2021/07/15 09:19:40;;;;;;;5.63;0.47;;;;;;;16.95;100.00;93485.44;5053547;28;20200;-77
2021/07/15 09:22:13;;;;;;;0.38;0.30;;;;;;;16.69;100.00;93493.03;5053577;28;20203;-76
2021/07/15 09:24:42;;;;;;;0.90;0.30;;;;;;;16.79;100.00;93487.09;5053449;28;20249;-77
2021/07/15 09:27:14;;;;;;;0.28;0.28;;;;;;;16.49;100.00;93490.94;5053240;28;20235;-76
2021/07/15 09:29:42;;;;;;;1.40;1.02;;;;;;;16.16;100.00;93495.25;5069216;28;20281;-76
2021/07/15 09:32:09;;;;;;;1.17;0.65;;;;;;;16.17;100.00;93494.22;5073453;28;20206;-77
2021/07/15 09:34:37;;;;;;;0.32;0.30;;;;;;;16.28;100.00;93495.13;5073252;28;20198;-75
2021/07/15 09:37:13;;;;;;;0.30;0.30;;;;;;;16.47;100.00;93495.69;5072985;28;20261;-79
2021/07/15 09:39:46;;;;;;;2.63;0.30;;;;;;;17.24;100.00;93486.03;5073154;28;20203;-77
2021/07/15 09:42:17;;;;;;;3.80;0.40;;;;;;;17.77;100.00;93470.41;5073118;28;20199;-77
2021/07/15 09:44:46;;;;;;;1.05;0.30;;;;;;;18.22;100.00;93476.25;5073289;28;20203;-76
2021/07/15 09:47:42;;;;;;;0.30;0.30;;;;;;;18.48;100.00;93470.09;5073232;28;20204;-76
2021/07/15 09:50:25;;;;;;;5.97;0.40;;;;;;;18.99;100.00;93474.03;5038030;28;20203;-77
2021/07/15 09:52:54;;;;;;;0.52;0.30;;;;;;;19.44;100.00;93469.88;5071962;28;20195;-77
2021/07/15 09:55:23;;;;;;;1.02;0.30;;;;;;;19.05;100.00;93472.97;5073193;28;20195;-77
2021/07/15 09:58:01;;;;;;;0.63;0.32;;;;;;;19.64;100.00;93473.63;5072551;28;20226;-76
2021/07/15 10:00:32;;;;;;;0.25;0.20;;;;;;;19.37;98.62;93479.94;5073021;28;20248;-77
2021/07/15 10:02:59;;;;;;;0.50;0.20;;;;;;;19.10;100.00;93482.78;5073078;28;20240;-76
2021/07/15 10:05:25;;;;;;;1.13;0.30;;;;;;;18.10;100.00;93485.19;5072520;28;20289;-77
2021/07/15 10:08:02;;;;;;;0.20;0.20;;;;;;;17.47;100.00;93484.13;5073053;28;20256;-76
2021/07/15 10:10:28;;;;;;;0.20;0.20;;;;;;;17.34;100.00;93483.50;5073054;28;20569;-77
2021/07/15 10:12:55;;;;;;;0.38;0.38;;;;;;;17.56;100.00;93482.63;5073077;28;20205;-76
2021/07/15 10:15:22;;;;;;;0.45;0.30;;;;;;;17.82;100.00;93488.94;5072760;28;20596;-76
2021/07/15 10:17:48;;;;;;;0.30;0.30;;;;;;;17.91;100.00;93491.91;5072971;28;20237;-78
2021/07/15 10:20:17;;;;;;;0.40;0.40;;;;;;;18.46;100.00;93482.75;5072939;28;20203;-78
2021/07/15 10:22:43;;;;;;;0.20;0.20;;;;;;;18.77;100.00;93480.25;5073172;28;20202;-77
2021/07/15 10:25:15;;;;;;;0.50;0.30;;;;;;;19.14;100.00;93478.56;5072805;28;20199;-78
2021/07/15 10:27:43;;;;;;;0.20;0.20;;;;;;;19.09;100.00;93474.06;5072582;28;20242;-78
2021/07/15 10:30:11;;;;;;;0.20;0.20;;;;;;;18.46;100.00;93477.47;5072779;28;20202;-77
2021/07/15 10:32:38;;;;;;;0.90;0.28;;;;;;;18.54;100.00;93478.06;5071891;28;20450;-78
2021/07/15 10:35:05;;;;;;;0.47;0.20;;;;;;;18.41;100.00;93484.59;5072752;28;20639;-77
2021/07/15 10:37:38;;;;;;;0.38;0.30;;;;;;;17.93;100.00;93492.47;5072535;28;20227;-78
2021/07/15 10:40:08;;;;;;;0.20;0.20;;;;;;;17.42;100.00;93494.63;5072589;28;20297;-78
2021/07/15 10:42:36;;;;;;;0.22;0.22;;;;;;;17.48;100.00;93494.44;5072484;28;20264;-78
2021/07/15 10:45:03;;;;;;;0.95;0.55;;;;;;;17.61;100.00;93501.16;5072734;28;20199;-78
2021/07/15 10:47:31;;;;;;;0.25;0.22;;;;;;;17.71;100.00;93508.38;5072581;28;20203;-78
2021/07/15 10:49:59;;;;;;;0.40;0.40;;;;;;;17.79;100.00;93501.84;5072516;28;20203;-77
2021/07/15 10:52:26;;;;;;;0.32;0.30;;;;;;;17.97;100.00;93506.78;5072469;28;20203;-77
2021/07/15 10:54:55;;;;;;;0.57;0.30;;;;;;;17.21;100.00;93502.34;5072325;28;20631;-76
2021/07/15 10:57:22;;;;;;;0.30;0.30;;;;;;;16.75;100.00;93499.16;5072516;28;20230;-77
2021/07/15 10:59:50;;;;;;;0.30;0.30;;;;;;;16.04;100.00;93507.72;5072445;28;20207;-79
2021/07/15 11:02:21;;;;;;;0.50;0.40;;;;;;;15.64;100.00;93503.38;5072434;28;20233;-79
2021/07/15 11:04:48;;;;;;;1.42;0.60;;;;;;;15.63;100.00;93505.19;5072394;28;20321;-77
2021/07/15 11:07:24;;;;;;;0.35;0.30;;;;;;;15.76;100.00;93511.22;5072320;28;20224;-80
2021/07/15 11:09:52;;;;;;;0.65;0.50;;;;;;;16.03;100.00;93520.06;5072472;28;20203;-79
2021/07/15 11:12:32;;;;;;;1.48;0.40;;;;;;;16.22;100.00;93517.16;5072431;28;20206;-78
2021/07/15 11:15:07;;;;;;;1.00;0.38;;;;;;;16.25;100.00;93519.31;5072681;28;20202;-79
2021/07/15 11:17:40;;;;;;;0.80;0.50;;;;;;;16.16;100.00;93516.31;5074860;28;20462;-73
2021/07/15 11:20:12;;;;;;;0.98;0.60;;;;;;;15.85;100.00;93526.41;5075707;28;20653;-78
2021/07/15 11:22:50;;;;;;;2.05;0.65;;;;;;;15.75;100.00;93525.38;5075914;28;20214;-77
2021/07/15 11:25:19;;;;;;;1.70;0.80;;;;;;;15.83;100.00;93530.28;5075484;28;20281;-78
2021/07/15 11:27:51;;;;;;;1.05;0.50;;;;;;;16.00;100.00;93532.91;5075762;28;20207;-80
2021/07/15 11:30:42;;;;;;;1.02;0.77;;;;;;;16.05;100.00;93531.19;5055667;28;20202;-79